Time;durP1;ratioP1;P1;durP2;ratioP2;P2;SDS_P1;SDS_P2;PMS_P1;PMS_P2;Temp;Humidity;BMP_temperature;BMP_pressure;BME280_temperature;BME280_humidity;BME280_pressure;Samples;Min_cycle;Max_cycle;Signal;HPM_P1;HPM_P2
2022/08/09 00:01:47;;;;;;;2.90;2.70;;;;;;;;;;5047818;28;20673;-74
2022/08/09 00:04:18;;;;;;;3.58;2.92;;;;;;;;;;5029588;28;20616;-74
2022/08/09 00:06:48;;;;;;;3.70;2.30;;;;;;;;;;5043886;28;20228;-74
2022/08/09 00:09:16;;;;;;;3.55;2.47;;;;;;;;;;5050521;28;20653;-75
2022/08/09 00:11:45;;;;;;;4.03;3.13;;;;;;;;;;5075159;28;20233;-74
2022/08/09 00:14:12;;;;;;;3.88;2.50;;;;;;;;;;5061950;28;20218;-75
2022/08/09 00:16:38;;;;;;;3.63;2.67;;;;;;;;;;5046189;28;20226;-74
2022/08/09 00:19:08;;;;;;;2.63;2.28;;;;;;;;;;5051390;28;20777;-75
2022/08/09 00:21:37;;;;;;;2.58;2.33;;;;;;;;;;5051121;28;20276;-74
2022/08/09 00:24:03;;;;;;;2.70;2.33;;;;;;;;;;5061872;28;20282;-74
2022/08/09 00:26:29;;;;;;;2.57;2.37;;;;;;;;;;5076514;28;20222;-75
2022/08/09 00:28:54;;;;;;;2.75;2.40;;;;;;;;;;5044323;28;20221;-74
2022/08/09 00:31:22;;;;;;;5.87;2.73;;;;;;;;;;5076496;28;20210;-75
2022/08/09 00:33:51;;;;;;;3.53;2.72;;;;;;;;;;5058442;28;20297;-74
2022/08/09 00:36:16;;;;;;;3.35;2.58;;;;;;;;;;5067979;28;20222;-75
2022/08/09 00:38:46;;;;;;;4.30;2.50;;;;;;;;;;5074547;28;20217;-75
2022/08/09 00:41:14;;;;;;;2.67;2.35;;;;;;;;;;5067043;28;20304;-75
2022/08/09 00:43:43;;;;;;;4.03;2.92;;;;;;;;;;5057988;28;20831;-75
2022/08/09 00:46:11;;;;;;;2.65;2.45;;;;;;;;;;5077548;28;20264;-74
2022/08/09 00:48:39;;;;;;;3.35;2.55;;;;;;;;;;5074690;28;20684;-74
2022/08/09 00:51:07;;;;;;;3.63;2.97;;;;;;;;;;5057567;28;20253;-74
2022/08/09 00:53:35;;;;;;;2.60;2.40;;;;;;;;;;5061112;28;20218;-75
2022/08/09 00:56:03;;;;;;;3.65;2.78;;;;;;;;;;5027684;28;20256;-74
2022/08/09 00:58:30;;;;;;;3.28;2.70;;;;;;;;;;5032887;28;20695;-74
2022/08/09 01:00:58;;;;;;;2.80;2.60;;;;;;;;;;5041683;28;20367;-74
2022/08/09 01:03:54;;;;;;;3.50;2.63;;;;;;;;;;5073582;28;20225;-75
2022/08/09 01:06:41;;;;;;;2.85;2.65;;;;;;;;;;5076766;28;20586;-74
2022/08/09 01:09:18;;;;;;;3.20;2.90;;;;;;;;;;5082488;28;20219;-74
2022/08/09 01:11:52;;;;;;;4.75;3.30;;;;;;;;;;5064472;28;20878;-74
2022/08/09 01:14:25;;;;;;;3.33;2.72;;;;;;;;;;5076663;28;20237;-74
2022/08/09 01:16:56;;;;;;;3.03;2.83;;;;;;;;;;5083354;28;20221;-74
2022/08/09 01:19:41;;;;;;;3.17;2.88;;;;;;;;;;5057906;28;20256;-74
2022/08/09 01:22:29;;;;;;;3.17;2.92;;;;;;;;;;5072047;28;20222;-75
2022/08/09 01:25:20;;;;;;;3.03;2.70;;;;;;;;;;5067041;28;20321;-74
2022/08/09 01:27:48;;;;;;;3.07;2.83;;;;;;;;;;5072488;28;20681;-74
2022/08/09 01:30:14;;;;;;;2.93;2.73;;;;;;;;;;5066027;28;20230;-74
2022/08/09 01:32:44;;;;;;;2.80;2.60;;;;;;;;;;5065934;28;20224;-73
2022/08/09 01:35:18;;;;;;;3.07;2.70;;;;;;;;;;5028240;28;20246;-74
2022/08/09 01:37:47;;;;;;;2.80;2.60;;;;;;;;;;5076663;28;20221;-74
2022/08/09 01:40:13;;;;;;;3.43;3.13;;;;;;;;;;5038616;28;20276;-74
2022/08/09 01:42:38;;;;;;;3.70;3.40;;;;;;;;;;5055912;28;20222;-74
2022/08/09 01:45:07;;;;;;;3.73;3.43;;;;;;;;;;5057736;28;20259;-75
2022/08/09 01:47:32;;;;;;;3.40;3.10;;;;;;;;;;5063727;28;20251;-75
2022/08/09 01:50:03;;;;;;;3.17;2.83;;;;;;;;;;5043854;28;20230;-74
2022/08/09 01:52:31;;;;;;;3.20;3.00;;;;;;;;;;5033977;28;20217;-75
2022/08/09 01:54:57;;;;;;;3.60;3.30;;;;;;;;;;5055884;28;20222;-74
2022/08/09 01:57:30;;;;;;;5.80;2.80;;;;;;;;;;5037694;28;20248;-74
2022/08/09 01:59:58;;;;;;;3.85;2.97;;;;;;;;;;5078857;28;20214;-75
2022/08/09 02:02:27;;;;;;;2.80;2.60;;;;;;;;;;5066999;28;20206;-75
2022/08/09 02:04:54;;;;;;;3.63;2.70;;;;;;;;;;5058484;28;20226;-75
2022/08/09 02:07:25;;;;;;;3.10;2.80;;;;;;;;;;5053123;28;20261;-75
2022/08/09 02:09:55;;;;;;;3.33;2.60;;;;;;;;;;5062267;28;20225;-75
2022/08/09 02:12:21;;;;;;;3.67;2.90;;;;;;;;;;5051916;28;20271;-75
2022/08/09 02:14:49;;;;;;;3.10;2.80;;;;;;;;;;5047837;28;20738;-75
2022/08/09 02:17:15;;;;;;;2.93;2.73;;;;;;;;;;5034558;28;20228;-74
2022/08/09 02:19:43;;;;;;;3.70;2.90;;;;;;;;;;5063173;28;20226;-74
2022/08/09 02:22:22;;;;;;;2.80;2.60;;;;;;;;;;5052902;28;20730;-76
2022/08/09 02:24:49;;;;;;;2.77;2.50;;;;;;;;;;5060760;28;20229;-75
2022/08/09 02:27:15;;;;;;;3.47;2.67;;;;;;;;;;5066024;28;20223;-75
2022/08/09 02:29:52;;;;;;;3.50;2.57;;;;;;;;;;5060187;28;20225;-75
2022/08/09 02:32:19;;;;;;;2.83;2.57;;;;;;;;;;5058128;28;20846;-75
2022/08/09 02:34:49;;;;;;;2.73;2.53;;;;;;;;;;5075873;28;20221;-75
2022/08/09 02:37:16;;;;;;;2.95;2.70;;;;;;;;;;5052633;28;20313;-76
2022/08/09 02:39:56;;;;;;;2.73;2.53;;;;;;;;;;5069463;28;20226;-75
2022/08/09 02:42:24;;;;;;;4.13;3.27;;;;;;;;;;5047425;28;20222;-75
2022/08/09 02:44:58;;;;;;;3.40;3.10;;;;;;;;;;5052661;28;20215;-75
2022/08/09 02:47:23;;;;;;;3.40;3.10;;;;;;;;;;5046169;28;20222;-74
2022/08/09 02:49:53;;;;;;;3.00;2.80;;;;;;;;;;5048140;28;20229;-74
2022/08/09 02:52:19;;;;;;;4.70;2.87;;;;;;;;;;5084923;28;20628;-74
2022/08/09 02:54:44;;;;;;;4.67;3.03;;;;;;;;;;5060298;28;20682;-74
2022/08/09 02:57:14;;;;;;;3.40;3.10;;;;;;;;;;5068054;28;20211;-75
2022/08/09 02:59:40;;;;;;;3.20;2.87;;;;;;;;;;5048331;28;20222;-75
2022/08/09 03:02:06;;;;;;;3.13;2.93;;;;;;;;;;5050989;28;20370;-75
2022/08/09 03:04:32;;;;;;;3.33;3.07;;;;;;;;;;5062442;28;20227;-75
2022/08/09 03:06:57;;;;;;;3.50;3.00;;;;;;;;;;5045004;28;20272;-75
2022/08/09 03:09:23;;;;;;;2.87;2.60;;;;;;;;;;5048286;28;20644;-75
2022/08/09 03:11:51;;;;;;;3.10;2.90;;;;;;;;;;5062408;28;20229;-75
2022/08/09 03:14:19;;;;;;;3.00;2.80;;;;;;;;;;5057884;28;20321;-75
2022/08/09 03:16:46;;;;;;;3.50;3.13;;;;;;;;;;5063285;28;20283;-75
2022/08/09 03:19:13;;;;;;;3.83;3.20;;;;;;;;;;5047728;28;20225;-75
2022/08/09 03:21:41;;;;;;;3.40;3.10;;;;;;;;;;5043858;28;20649;-74
2022/08/09 03:24:11;;;;;;;3.53;3.00;;;;;;;;;;5043449;28;20222;-75
2022/08/09 03:26:37;;;;;;;3.33;2.90;;;;;;;;;;5048725;28;20296;-74
2022/08/09 03:29:04;;;;;;;3.57;3.23;;;;;;;;;;5056402;28;20229;-75
2022/08/09 03:31:34;;;;;;;3.20;3.00;;;;;;;;;;5058249;28;20214;-75
2022/08/09 03:34:05;;;;;;;3.13;2.93;;;;;;;;;;5062670;28;20249;-75
2022/08/09 03:36:30;;;;;;;3.37;3.07;;;;;;;;;;5053133;28;20274;-75
2022/08/09 03:38:58;;;;;;;3.73;3.00;;;;;;;;;;5073094;28;20228;-75
2022/08/09 03:41:28;;;;;;;3.00;2.67;;;;;;;;;;5077639;28;20214;-75
2022/08/09 03:43:58;;;;;;;2.80;2.60;;;;;;;;;;5058847;28;20257;-74
2022/08/09 03:46:26;;;;;;;2.73;2.53;;;;;;;;;;5068507;28;20218;-75
2022/08/09 03:48:57;;;;;;;2.90;2.70;;;;;;;;;;5078249;28;20216;-75
2022/08/09 03:51:23;;;;;;;4.80;3.00;;;;;;;;;;5058149;28;20265;-75
2022/08/09 03:53:49;;;;;;;3.17;2.93;;;;;;;;;;5048962;28;20260;-75
2022/08/09 03:56:14;;;;;;;3.00;2.80;;;;;;;;;;5063546;28;20725;-75
2022/08/09 03:58:42;;;;;;;2.67;2.57;;;;;;;;;;5043413;28;20218;-75
2022/08/09 04:01:12;;;;;;;3.10;2.80;;;;;;;;;;5045821;28;20232;-75
2022/08/09 04:03:38;;;;;;;3.17;2.87;;;;;;;;;;5044603;28;20222;-75
2022/08/09 04:06:04;;;;;;;3.00;2.77;;;;;;;;;;5032907;28;20225;-75
2022/08/09 04:08:30;;;;;;;2.80;2.60;;;;;;;;;;5044962;28;20287;-75
2022/08/09 04:10:58;;;;;;;2.37;2.20;;;;;;;;;;5072220;28;20245;-75
2022/08/09 04:13:23;;;;;;;2.20;2.00;;;;;;;;;;5056368;28;20225;-75
2022/08/09 04:15:53;;;;;;;2.60;2.17;;;;;;;;;;5073402;28;20214;-75
2022/08/09 04:18:19;;;;;;;2.50;2.30;;;;;;;;;;5072729;28;20234;-74
2022/08/09 04:20:48;;;;;;;2.97;2.03;;;;;;;;;;5074801;28;20715;-74
2022/08/09 04:23:22;;;;;;;2.87;2.67;;;;;;;;;;5060383;28;20388;-75
2022/08/09 04:25:51;;;;;;;3.13;2.87;;;;;;;;;;5036202;28;20587;-75
2022/08/09 04:28:20;;;;;;;2.93;2.67;;;;;;;;;;5051414;28;20312;-75
2022/08/09 04:30:47;;;;;;;3.00;2.70;;;;;;;;;;5046251;28;20344;-76
2022/08/09 04:33:13;;;;;;;2.77;2.57;;;;;;;;;;5072994;28;20927;-76
2022/08/09 04:35:41;;;;;;;3.77;3.23;;;;;;;;;;5063414;28;20952;-74
2022/08/09 04:38:06;;;;;;;2.80;2.60;;;;;;;;;;5066127;28;20214;-75
2022/08/09 04:40:49;;;;;;;3.03;2.73;;;;;;;;;;5059425;28;20218;-75
2022/08/09 04:43:17;;;;;;;4.13;2.87;;;;;;;;;;5054248;28;20363;-74
2022/08/09 04:45:43;;;;;;;4.33;2.90;;;;;;;;;;5047135;28;20226;-75
2022/08/09 04:48:15;;;;;;;2.93;2.73;;;;;;;;;;5060746;28;20688;-75
2022/08/09 04:50:41;;;;;;;2.73;2.50;;;;;;;;;;5035106;28;20327;-75
2022/08/09 04:53:11;;;;;;;2.50;2.30;;;;;;;;;;5046301;28;20225;-75
2022/08/09 04:55:39;;;;;;;2.20;2.10;;;;;;;;;;5062537;28;20800;-75
2022/08/09 04:58:07;;;;;;;3.33;1.93;;;;;;;;;;5077383;28;20210;-75
2022/08/09 05:00:33;;;;;;;2.27;2.07;;;;;;;;;;5045147;28;20232;-75
2022/08/09 05:03:04;;;;;;;2.17;2.07;;;;;;;;;;5066561;28;20257;-75
2022/08/09 05:05:30;;;;;;;2.30;2.10;;;;;;;;;;5058944;28;20309;-75
2022/08/09 05:07:58;;;;;;;2.50;2.30;;;;;;;;;;5039302;28;20229;-74
2022/08/09 05:10:23;;;;;;;2.60;2.40;;;;;;;;;;5079068;28;20301;-75
2022/08/09 05:12:49;;;;;;;2.58;2.33;;;;;;;;;;5082325;28;20684;-75
2022/08/09 05:15:15;;;;;;;6.80;2.80;;;;;;;;;;5059719;28;20229;-75
2022/08/09 05:17:45;;;;;;;3.00;2.80;;;;;;;;;;5048523;28;20263;-75
2022/08/09 05:20:13;;;;;;;2.45;2.25;;;;;;;;;;5049339;28;20227;-75
2022/08/09 05:22:45;;;;;;;2.70;2.50;;;;;;;;;;5062979;28;20257;-75
2022/08/09 05:25:11;;;;;;;2.58;2.38;;;;;;;;;;5047479;28;20574;-76
2022/08/09 05:27:36;;;;;;;2.40;2.20;;;;;;;;;;5042450;28;20207;-75
2022/08/09 05:30:02;;;;;;;2.50;2.30;;;;;;;;;;5058629;28;20218;-75
2022/08/09 05:32:28;;;;;;;3.08;2.88;;;;;;;;;;5071823;28;20221;-76
2022/08/09 05:34:56;;;;;;;3.33;3.00;;;;;;;;;;5064065;28;20215;-74
2022/08/09 05:37:21;;;;;;;3.70;3.13;;;;;;;;;;5083432;28;20230;-74
2022/08/09 05:39:51;;;;;;;3.37;3.07;;;;;;;;;;5072948;28;20769;-74
2022/08/09 05:42:20;;;;;;;3.08;2.88;;;;;;;;;;5039534;28;20867;-75
2022/08/09 05:44:48;;;;;;;3.88;2.70;;;;;;;;;;5071474;28;20957;-75
2022/08/09 05:47:22;;;;;;;3.78;2.70;;;;;;;;;;5063540;28;20269;-76
2022/08/09 05:49:47;;;;;;;2.88;2.58;;;;;;;;;;5063115;28;20223;-75
2022/08/09 05:52:13;;;;;;;2.35;2.15;;;;;;;;;;5041926;28;20324;-76
2022/08/09 05:54:39;;;;;;;2.30;2.20;;;;;;;;;;5060601;28;20225;-75
2022/08/09 05:57:04;;;;;;;3.38;2.25;;;;;;;;;;5057014;28;20211;-75
2022/08/09 05:59:30;;;;;;;2.67;2.47;;;;;;;;;;5071630;28;20631;-75
2022/08/09 06:01:58;;;;;;;2.50;2.30;;;;;;;;;;5077199;28;20664;-75
2022/08/09 06:04:25;;;;;;;2.80;2.60;;;;;;;;;;5074381;28;20250;-75
2022/08/09 06:06:51;;;;;;;3.35;2.20;;;;;;;;;;5055848;28;20248;-75
2022/08/09 06:09:19;;;;;;;2.58;2.38;;;;;;;;;;5073226;28;20589;-75
2022/08/09 06:11:45;;;;;;;2.40;2.20;;;;;;;;;;5074585;28;20533;-75
2022/08/09 06:14:11;;;;;;;2.70;1.95;;;;;;;;;;5061663;28;20223;-75
2022/08/09 06:16:38;;;;;;;3.97;2.53;;;;;;;;;;5045249;28;20714;-75
2022/08/09 06:19:04;;;;;;;3.58;2.40;;;;;;;;;;5039419;28;20226;-75
2022/08/09 06:21:37;;;;;;;5.45;2.72;;;;;;;;;;5033609;28;20218;-75
2022/08/09 06:24:08;;;;;;;2.80;2.00;;;;;;;;;;5058108;28;20234;-74
2022/08/09 06:26:35;;;;;;;3.05;2.38;;;;;;;;;;5044404;28;20211;-75
2022/08/09 06:29:03;;;;;;;2.15;1.98;;;;;;;;;;5063945;28;20695;-75
2022/08/09 06:31:29;;;;;;;7.60;2.13;;;;;;;;;;5073004;28;20592;-75
2022/08/09 06:33:57;;;;;;;1.95;1.83;;;;;;;;;;5058564;28;20218;-74
2022/08/09 06:36:24;;;;;;;3.28;2.00;;;;;;;;;;5065532;28;20222;-75
2022/08/09 06:38:50;;;;;;;3.17;1.55;;;;;;;;;;5077880;28;20233;-75
2022/08/09 06:41:20;;;;;;;4.43;2.30;;;;;;;;;;5059679;28;20231;-75
2022/08/09 06:43:48;;;;;;;3.50;1.80;;;;;;;;;;5053717;28;20207;-75
2022/08/09 06:46:16;;;;;;;2.78;1.70;;;;;;;;;;5072278;28;20243;-76
2022/08/09 06:48:42;;;;;;;2.10;1.77;;;;;;;;;;5060692;28;20214;-75
2022/08/09 06:51:11;;;;;;;3.67;1.80;;;;;;;;;;5042047;28;20302;-76
2022/08/09 06:53:42;;;;;;;3.17;1.98;;;;;;;;;;5064870;28;20206;-75
2022/08/09 06:56:12;;;;;;;1.60;1.40;;;;;;;;;;5044143;28;20375;-75
2022/08/09 06:58:40;;;;;;;2.30;1.60;;;;;;;;;;5083453;28;20210;-74
2022/08/09 07:01:05;;;;;;;3.03;1.70;;;;;;;;;;5062942;28;20637;-76
2022/08/09 07:03:38;;;;;;;2.70;1.65;;;;;;;;;;5050839;28;20265;-74
2022/08/09 07:06:03;;;;;;;2.83;1.65;;;;;;;;;;5036204;28;20313;-74
2022/08/09 07:08:36;;;;;;;2.83;1.60;;;;;;;;;;5075670;28;20234;-74
2022/08/09 07:11:02;;;;;;;2.30;1.25;;;;;;;;;;5056471;28;20226;-74
2022/08/09 07:13:38;;;;;;;1.73;1.33;;;;;;;;;;5060147;28;20318;-76
2022/08/09 07:16:09;;;;;;;2.22;1.60;;;;;;;;;;5052571;28;20213;-75
2022/08/09 07:18:34;;;;;;;3.17;1.30;;;;;;;;;;5073892;28;20321;-73
2022/08/09 07:21:00;;;;;;;2.78;1.60;;;;;;;;;;5064398;28;20229;-74
2022/08/09 07:23:25;;;;;;;1.85;1.50;;;;;;;;;;5045444;28;20238;-76
2022/08/09 07:25:57;;;;;;;7.88;1.35;;;;;;;;;;5081634;28;20230;-75
2022/08/09 07:28:23;;;;;;;1.88;1.25;;;;;;;;;;5050346;28;20234;-76
2022/08/09 07:30:51;;;;;;;2.60;1.23;;;;;;;;;;5081133;28;20222;-75
2022/08/09 07:33:17;;;;;;;2.00;1.10;;;;;;;;;;5077177;28;20210;-76
2022/08/09 07:35:44;;;;;;;2.85;1.30;;;;;;;;;;5060719;28;20228;-76
2022/08/09 07:38:10;;;;;;;2.50;1.23;;;;;;;;;;5070891;28;20676;-76
2022/08/09 07:40:36;;;;;;;1.48;1.02;;;;;;;;;;5043150;28;20242;-76
2022/08/09 07:43:03;;;;;;;4.32;1.27;;;;;;;;;;5074200;28;20859;-75
2022/08/09 07:45:29;;;;;;;6.10;1.13;;;;;;;;;;5079426;28;20312;-75
2022/08/09 07:47:56;;;;;;;1.20;1.10;;;;;;;;;;5050938;28;20703;-75
2022/08/09 07:50:22;;;;;;;0.80;0.80;;;;;;;;;;5051932;28;20256;-77
2022/08/09 07:52:47;;;;;;;1.13;0.98;;;;;;;;;;5064907;28;20324;-76
2022/08/09 07:55:15;;;;;;;2.55;1.15;;;;;;;;;;5077769;28;20327;-75
2022/08/09 07:57:41;;;;;;;3.00;0.82;;;;;;;;;;5072454;28;20218;-74
2022/08/09 08:00:07;;;;;;;3.25;1.10;;;;;;;;;;5082415;28;20595;-75
2022/08/09 08:02:43;;;;;;;1.30;1.08;;;;;;;;;;5066044;28;20763;-75
2022/08/09 08:05:11;;;;;;;1.55;0.80;;;;;;;;;;5074917;28;20230;-76
2022/08/09 08:07:37;;;;;;;1.88;0.93;;;;;;;;;;5063120;28;20301;-75
2022/08/09 08:10:23;;;;;;;4.07;1.20;;;;;;;;;;5080805;28;20371;-75
2022/08/09 08:12:48;;;;;;;2.58;0.88;;;;;;;;;;5022712;28;20222;-75
2022/08/09 08:15:16;;;;;;;1.00;0.80;;;;;;;;;;5059617;28;20305;-76
2022/08/09 08:17:43;;;;;;;1.40;0.70;;;;;;;;;;5066909;28;21022;-76
2022/08/09 08:20:12;;;;;;;0.85;0.70;;;;;;;;;;5075850;28;20218;-75
2022/08/09 08:22:39;;;;;;;2.45;0.98;;;;;;;;;;5072223;28;20246;-77
2022/08/09 08:25:08;;;;;;;0.57;0.57;;;;;;;;;;5062747;28;20586;-75
2022/08/09 08:27:33;;;;;;;2.83;0.70;;;;;;;;;;5065170;28;20236;-76
2022/08/09 08:30:01;;;;;;;2.05;0.90;;;;;;;;;;5053991;28;20215;-77
2022/08/09 08:32:26;;;;;;;1.02;0.90;;;;;;;;;;5049731;28;21053;-75
2022/08/09 08:34:53;;;;;;;2.78;1.00;;;;;;;;;;5056502;28;20210;-77
2022/08/09 08:37:18;;;;;;;1.40;1.00;;;;;;;;;;5054901;28;20218;-75
2022/08/09 08:39:46;;;;;;;2.25;0.93;;;;;;;;;;5072823;28;20746;-77
2022/08/09 08:42:17;;;;;;;1.52;1.00;;;;;;;;;;5071726;28;20329;-76
2022/08/09 08:44:47;;;;;;;1.65;0.80;;;;;;;;;;5058398;28;20737;-76
2022/08/09 08:47:15;;;;;;;2.25;0.82;;;;;;;;;;5023959;28;20226;-75
2022/08/09 08:49:43;;;;;;;1.77;0.90;;;;;;;;;;5050365;28;20927;-76
2022/08/09 08:52:11;;;;;;;2.97;1.00;;;;;;;;;;5070943;28;20233;-75
2022/08/09 08:54:37;;;;;;;1.77;0.80;;;;;;;;;;5040884;28;20237;-76
2022/08/09 08:57:03;;;;;;;1.98;0.70;;;;;;;;;;5049217;28;20628;-76
2022/08/09 08:59:28;;;;;;;1.52;0.82;;;;;;;;;;5060982;28;20238;-75
2022/08/09 09:01:54;;;;;;;1.67;0.77;;;;;;;;;;5057466;28;20283;-76
2022/08/09 09:04:19;;;;;;;1.00;0.77;;;;;;;;;;5023299;28;20222;-77
2022/08/09 09:06:47;;;;;;;4.18;0.93;;;;;;;;;;5070598;28;20313;-76
2022/08/09 09:09:14;;;;;;;0.85;0.80;;;;;;;;;;5066636;28;20224;-75
2022/08/09 09:11:42;;;;;;;1.60;0.80;;;;;;;;;;5042226;28;20225;-76
2022/08/09 09:14:16;;;;;;;1.42;0.70;;;;;;;;;;5074412;28;20339;-76
2022/08/09 09:16:44;;;;;;;0.80;0.73;;;;;;;;;;5061935;28;20652;-75
2022/08/09 09:19:10;;;;;;;2.50;1.00;;;;;;;;;;5043879;28;20955;-75
2022/08/09 09:21:36;;;;;;;0.80;0.80;;;;;;;;;;5045274;28;20226;-75
2022/08/09 09:24:04;;;;;;;0.80;0.80;;;;;;;;;;5056526;28;20238;-76
2022/08/09 09:26:36;;;;;;;1.10;0.70;;;;;;;;;;5034612;28;20233;-74
2022/08/09 09:29:04;;;;;;;1.83;0.75;;;;;;;;;;5060253;28;20229;-74
2022/08/09 09:31:31;;;;;;;1.05;0.77;;;;;;;;;;5080766;28;20387;-75
2022/08/09 09:34:13;;;;;;;2.15;1.00;;;;;;;;;;5077735;28;20218;-76
2022/08/09 09:36:39;;;;;;;2.17;0.70;;;;;;;;;;5050641;28;20225;-75
2022/08/09 09:39:09;;;;;;;3.88;0.80;;;;;;;;;;5074951;28;20249;-75
2022/08/09 09:41:36;;;;;;;1.05;0.70;;;;;;;;;;5059144;28;20260;-75
2022/08/09 09:44:04;;;;;;;1.00;0.75;;;;;;;;;;5064658;28;20214;-76
2022/08/09 09:46:36;;;;;;;1.30;0.82;;;;;;;;;;5065667;28;20238;-77
2022/08/09 09:49:11;;;;;;;1.10;0.80;;;;;;;;;;5058942;28;20226;-76
2022/08/09 09:51:47;;;;;;;2.35;0.77;;;;;;;;;;5070966;28;20213;-77
2022/08/09 09:54:22;;;;;;;0.88;0.70;;;;;;;;;;5033568;28;20260;-76
2022/08/09 09:56:48;;;;;;;1.02;0.93;;;;;;;;;;5058106;28;21075;-76
2022/08/09 09:59:21;;;;;;;0.98;0.80;;;;;;;;;;5061135;28;20637;-75
2022/08/09 10:01:58;;;;;;;1.83;0.77;;;;;;;;;;5048713;28;20209;-75
2022/08/09 10:04:23;;;;;;;1.17;0.68;;;;;;;;;;5075961;28;20221;-75
2022/08/09 10:06:54;;;;;;;0.90;0.73;;;;;;;;;;5074377;28;20215;-75
2022/08/09 10:09:19;;;;;;;1.63;0.73;;;;;;;;;;5030449;28;20783;-76
2022/08/09 10:11:45;;;;;;;1.92;0.93;;;;;;;;;;5064441;28;20213;-76
2022/08/09 10:14:27;;;;;;;0.90;0.63;;;;;;;;;;5075597;28;20218;-75
2022/08/09 10:16:53;;;;;;;0.95;0.82;;;;;;;;;;5075025;28;20229;-75
2022/08/09 10:19:21;;;;;;;1.33;0.68;;;;;;;;;;5077830;28;20234;-75
2022/08/09 10:21:48;;;;;;;1.58;0.70;;;;;;;;;;5059468;28;20245;-75
2022/08/09 10:24:14;;;;;;;1.95;0.93;;;;;;;;;;5051357;28;20313;-75
2022/08/09 10:26:40;;;;;;;1.90;0.60;;;;;;;;;;5062540;28;20280;-76
2022/08/09 10:29:12;;;;;;;0.70;0.70;;;;;;;;;;5051391;28;20222;-74
2022/08/09 10:31:38;;;;;;;1.58;0.80;;;;;;;;;;5043451;28;20219;-74
2022/08/09 10:34:04;;;;;;;4.18;1.10;;;;;;;;;;5065105;28;20275;-75
2022/08/09 10:36:29;;;;;;;1.42;0.82;;;;;;;;;;5065989;28;20708;-75
2022/08/09 10:39:00;;;;;;;2.17;0.90;;;;;;;;;;5043629;28;20234;-75
2022/08/09 10:41:25;;;;;;;1.58;0.88;;;;;;;;;;5074863;28;20223;-75
2022/08/09 10:43:53;;;;;;;1.48;0.80;;;;;;;;;;5047437;28;20218;-75
2022/08/09 10:46:33;;;;;;;1.15;1.00;;;;;;;;;;5043831;28;20736;-74
2022/08/09 10:49:08;;;;;;;1.10;0.80;;;;;;;;;;5079650;28;20225;-75
2022/08/09 10:51:46;;;;;;;2.42;0.90;;;;;;;;;;5079502;28;20791;-74
2022/08/09 10:54:13;;;;;;;2.15;0.75;;;;;;;;;;5080666;28;20218;-74
2022/08/09 10:56:41;;;;;;;1.77;0.75;;;;;;;;;;5062491;28;20227;-75
2022/08/09 10:59:24;;;;;;;1.10;0.70;;;;;;;;;;5059459;28;20261;-75
2022/08/09 11:01:52;;;;;;;0.98;0.70;;;;;;;;;;5066262;28;20227;-75
2022/08/09 11:04:20;;;;;;;1.17;0.82;;;;;;;;;;5048051;28;20218;-75
2022/08/09 11:07:07;;;;;;;1.13;0.80;;;;;;;;;;5052352;28;20225;-75
2022/08/09 11:09:47;;;;;;;2.25;1.00;;;;;;;;;;5057766;28;20295;-74
2022/08/09 11:12:25;;;;;;;0.98;0.80;;;;;;;;;;5077393;28;20325;-74
2022/08/09 11:14:56;;;;;;;0.95;0.70;;;;;;;;;;5071356;28;20214;-74
2022/08/09 11:17:21;;;;;;;0.77;0.60;;;;;;;;;;5078519;28;20598;-75
2022/08/09 11:19:56;;;;;;;1.27;0.90;;;;;;;;;;5073045;28;20288;-76
2022/08/09 11:22:39;;;;;;;1.58;0.75;;;;;;;;;;5084556;28;20245;-76
2022/08/09 11:25:08;;;;;;;1.90;0.90;;;;;;;;;;5060245;28;20233;-75
2022/08/09 11:27:40;;;;;;;0.73;0.70;;;;;;;;;;5051401;28;20313;-76
2022/08/09 11:30:09;;;;;;;0.73;0.70;;;;;;;;;;5068797;28;20321;-76
2022/08/09 11:32:44;;;;;;;4.32;0.93;;;;;;;;;;5070716;28;20221;-76
2022/08/09 11:35:27;;;;;;;0.90;0.77;;;;;;;;;;5069918;28;20228;-75
2022/08/09 11:37:56;;;;;;;1.58;0.80;;;;;;;;;;5076024;28;20218;-74
2022/08/09 11:40:32;;;;;;;1.75;1.02;;;;;;;;;;5083753;28;20222;-75
2022/08/09 11:42:59;;;;;;;1.65;0.75;;;;;;;;;;5060884;28;20723;-74
2022/08/09 11:45:37;;;;;;;1.50;0.90;;;;;;;;;;5053312;28;20226;-75
2022/08/09 11:48:11;;;;;;;1.80;0.60;;;;;;;;;;5042753;28;20222;-75
2022/08/09 11:50:57;;;;;;;1.25;0.80;;;;;;;;;;5074329;28;20272;-76
2022/08/09 11:53:23;;;;;;;2.50;0.95;;;;;;;;;;5064768;28;20612;-75
2022/08/09 11:56:12;;;;;;;1.02;0.90;;;;;;;;;;5074970;28;20692;-74
2022/08/09 11:58:40;;;;;;;1.23;0.80;;;;;;;;;;5073941;28;20218;-77
2022/08/09 12:01:07;;;;;;;0.65;0.65;;;;;;;;;;5082391;28;20219;-74
2022/08/09 12:03:38;;;;;;;2.92;0.70;;;;;;;;;;5073666;28;20252;-74
2022/08/09 12:06:18;;;;;;;1.00;0.90;;;;;;;;;;5066879;28;20230;-74
2022/08/09 12:08:48;;;;;;;1.05;0.63;;;;;;;;;;5065414;28;20865;-74
2022/08/09 12:11:17;;;;;;;0.65;0.60;;;;;;;;;;5061023;28;20746;-74
2022/08/09 12:13:47;;;;;;;1.48;0.95;;;;;;;;;;5057851;28;20624;-74
2022/08/09 12:16:21;;;;;;;1.98;0.70;;;;;;;;;;5042653;28;20309;-76
2022/08/09 12:18:48;;;;;;;1.15;0.70;;;;;;;;;;5050492;28;20256;-75
2022/08/09 12:21:28;;;;;;;0.88;0.60;;;;;;;;;;5040780;28;20223;-76
2022/08/09 12:23:54;;;;;;;0.75;0.70;;;;;;;;;;5061892;28;20711;-76
2022/08/09 12:26:22;;;;;;;1.75;0.90;;;;;;;;;;5042380;28;20248;-75
2022/08/09 12:28:50;;;;;;;5.13;0.80;;;;;;;;;;5064933;28;20226;-75
2022/08/09 12:31:29;;;;;;;2.88;0.80;;;;;;;;;;5049560;28;20218;-75
2022/08/09 12:33:56;;;;;;;1.00;0.90;;;;;;;;;;5056678;28;20533;-74
2022/08/09 12:36:22;;;;;;;2.53;0.63;;;;;;;;;;5044590;28;20237;-76
2022/08/09 12:38:51;;;;;;;1.65;0.70;;;;;;;;;;5065780;28;20223;-74
2022/08/09 12:41:24;;;;;;;0.85;0.70;;;;;;;;;;5066638;28;20312;-75
2022/08/09 12:43:50;;;;;;;2.55;0.70;;;;;;;;;;5050262;28;20259;-75
2022/08/09 12:46:18;;;;;;;2.63;0.80;;;;;;;;;;5041842;28;20234;-74
2022/08/09 12:48:43;;;;;;;0.55;0.50;;;;;;;;;;5062211;28;20226;-77
2022/08/09 12:51:09;;;;;;;1.13;0.90;;;;;;;;;;5040635;28;20218;-75
2022/08/09 12:53:42;;;;;;;1.52;0.90;;;;;;;;;;5044870;28;20297;-75
2022/08/09 12:56:15;;;;;;;1.33;0.80;;;;;;;;;;5024886;28;20765;-76
2022/08/09 12:59:02;;;;;;;1.77;0.70;;;;;;;;;;5057754;28;20703;-77
2022/08/09 13:01:33;;;;;;;1.73;0.80;;;;;;;;;;5061226;28;20227;-76
2022/08/09 13:04:01;;;;;;;0.95;0.52;;;;;;;;;;5056770;28;20229;-75
2022/08/09 13:06:28;;;;;;;0.70;0.70;;;;;;;;;;5075747;28;20257;-75
2022/08/09 13:09:04;;;;;;;0.90;0.70;;;;;;;;;;5066495;28;20250;-75
2022/08/09 13:11:37;;;;;;;1.70;0.60;;;;;;;;;;5073720;28;20252;-75
2022/08/09 13:14:05;;;;;;;0.60;0.60;;;;;;;;;;5056788;28;20245;-74
2022/08/09 13:16:44;;;;;;;0.70;0.63;;;;;;;;;;5050407;28;20226;-76
2022/08/09 13:19:22;;;;;;;3.03;0.65;;;;;;;;;;5076378;28;20237;-74
2022/08/09 13:21:59;;;;;;;1.30;0.73;;;;;;;;;;5042881;28;20657;-74
2022/08/09 13:24:29;;;;;;;0.90;0.57;;;;;;;;;;5065796;28;20218;-76
2022/08/09 13:26:58;;;;;;;0.85;0.70;;;;;;;;;;5061611;28;20708;-74
2022/08/09 13:29:24;;;;;;;2.38;0.60;;;;;;;;;;5039959;28;20720;-76
2022/08/09 13:31:56;;;;;;;1.13;0.70;;;;;;;;;;5072833;28;20217;-76
2022/08/09 13:34:29;;;;;;;0.95;0.60;;;;;;;;;;5061622;28;20222;-75
2022/08/09 13:36:58;;;;;;;2.53;0.80;;;;;;;;;;5066253;28;20268;-75
2022/08/09 13:39:25;;;;;;;1.30;0.77;;;;;;;;;;5028735;28;20206;-76
2022/08/09 13:41:59;;;;;;;1.25;0.77;;;;;;;;;;5054298;28;20225;-74
2022/08/09 13:44:27;;;;;;;0.98;0.80;;;;;;;;;;5064925;28;20220;-76
2022/08/09 13:46:54;;;;;;;0.98;0.80;;;;;;;;;;5059476;28;20249;-75
2022/08/09 13:49:23;;;;;;;1.30;0.80;;;;;;;;;;5046288;28;20248;-75
2022/08/09 13:51:51;;;;;;;1.73;0.73;;;;;;;;;;5072970;28;20218;-75
2022/08/09 13:54:18;;;;;;;1.13;0.73;;;;;;;;;;5059009;28;20226;-76
2022/08/09 13:56:44;;;;;;;1.38;0.70;;;;;;;;;;5045797;28;20272;-76
2022/08/09 13:59:09;;;;;;;0.90;0.60;;;;;;;;;;5066105;28;20703;-76
2022/08/09 14:01:35;;;;;;;1.75;0.75;;;;;;;;;;5057047;28;20218;-74
2022/08/09 14:04:03;;;;;;;0.95;0.70;;;;;;;;;;5057631;28;20230;-74
2022/08/09 14:06:28;;;;;;;1.05;0.60;;;;;;;;;;5056858;28;20241;-76
2022/08/09 14:08:53;;;;;;;0.68;0.60;;;;;;;;;;5070214;28;20231;-76
2022/08/09 14:11:19;;;;;;;0.63;0.50;;;;;;;;;;5081800;28;20790;-75
2022/08/09 14:13:47;;;;;;;0.80;0.60;;;;;;;;;;5058532;28;20305;-75
2022/08/09 14:16:22;;;;;;;2.53;0.90;;;;;;;;;;5077943;28;20307;-76
2022/08/09 14:18:50;;;;;;;1.38;0.80;;;;;;;;;;5060221;28;20249;-76
2022/08/09 14:21:20;;;;;;;0.55;0.55;;;;;;;;;;5057549;28;20240;-75
2022/08/09 14:23:49;;;;;;;1.10;0.70;;;;;;;;;;5060928;28;20350;-76
2022/08/09 14:26:19;;;;;;;2.67;1.00;;;;;;;;;;5058716;28;20708;-76
2022/08/09 14:28:44;;;;;;;1.10;0.77;;;;;;;;;;5051949;28;20250;-75
2022/08/09 14:31:12;;;;;;;1.45;0.63;;;;;;;;;;5076899;28;20607;-74
2022/08/09 14:33:40;;;;;;;3.63;0.88;;;;;;;;;;5081881;28;20223;-75
2022/08/09 14:36:08;;;;;;;1.42;0.93;;;;;;;;;;5053812;28;20211;-74
2022/08/09 14:38:33;;;;;;;2.05;0.80;;;;;;;;;;5045298;28;20275;-75
2022/08/09 14:40:59;;;;;;;0.85;0.60;;;;;;;;;;5072458;28;20301;-75
2022/08/09 14:43:29;;;;;;;2.08;0.85;;;;;;;;;;5054055;28;20218;-74
2022/08/09 14:45:54;;;;;;;1.30;0.85;;;;;;;;;;5058541;28;20674;-75
2022/08/09 14:48:26;;;;;;;3.60;0.73;;;;;;;;;;5055175;28;20243;-75
2022/08/09 14:50:57;;;;;;;1.52;0.70;;;;;;;;;;5070612;28;20219;-75
2022/08/09 14:53:22;;;;;;;1.48;0.90;;;;;;;;;;5068371;28;20599;-74
2022/08/09 14:55:48;;;;;;;2.22;0.88;;;;;;;;;;5036837;28;20222;-73